createdAt,value
2018-07-17T00:00:58.295Z,3.00
2018-07-17T00:03:26.241Z,2.93
2018-07-17T00:05:54.352Z,2.90
2018-07-17T00:08:22.470Z,2.93
2018-07-17T00:10:50.593Z,2.83
2018-07-17T00:13:18.706Z,3.10
2018-07-17T00:15:46.818Z,3.13
2018-07-17T00:18:14.701Z,3.00
2018-07-17T00:20:42.806Z,2.97
2018-07-17T00:23:10.918Z,3.10
2018-07-17T00:25:38.811Z,3.37
2018-07-17T00:28:06.920Z,2.93
2018-07-17T00:30:35.106Z,2.97
2018-07-17T00:33:03.238Z,3.27
2018-07-17T00:35:31.347Z,3.10
2018-07-17T00:37:59.475Z,3.00
2018-07-17T00:40:27.591Z,2.90
2018-07-17T00:42:55.722Z,3.30
2018-07-17T00:45:23.827Z,2.83
2018-07-17T00:47:51.977Z,2.90
2018-07-17T00:50:20.065Z,2.83
2018-07-17T00:52:48.179Z,3.30
2018-07-17T00:55:16.107Z,3.20
2018-07-17T00:57:44.503Z,2.60
2018-07-17T01:00:12.642Z,3.20
2018-07-17T01:02:46.206Z,3.30
2018-07-17T01:05:19.597Z,3.30
2018-07-17T01:07:53.011Z,3.50
2018-07-17T01:10:26.578Z,3.10
2018-07-17T01:12:53.999Z,3.40
2018-07-17T01:15:25.767Z,2.77
2018-07-17T01:17:53.884Z,3.47
2018-07-17T01:20:21.990Z,2.53
2018-07-17T01:22:50.102Z,3.13
2018-07-17T01:25:18.217Z,2.90
2018-07-17T01:27:46.341Z,2.90
2018-07-17T01:30:14.452Z,3.43
2018-07-17T01:32:42.555Z,3.20
2018-07-17T01:35:10.675Z,3.20
2018-07-17T01:37:38.581Z,3.00
2018-07-17T01:40:06.721Z,3.07
2018-07-17T01:42:34.659Z,3.20
2018-07-17T01:45:02.804Z,3.30
2018-07-17T01:47:30.940Z,3.03
2018-07-17T01:49:59.076Z,3.67
2018-07-17T01:52:27.199Z,3.60
2018-07-17T01:54:55.341Z,3.53
2018-07-17T01:57:23.244Z,3.30
2018-07-17T01:59:51.367Z,3.60
2018-07-17T02:02:19.495Z,3.53
2018-07-17T02:04:47.723Z,3.53
2018-07-17T02:07:15.849Z,3.40
2018-07-17T02:09:43.992Z,3.10
2018-07-17T02:12:12.102Z,3.50
2018-07-17T02:14:40.236Z,3.00
2018-07-17T02:17:08.371Z,3.57
2018-07-17T02:19:36.506Z,3.10
2018-07-17T02:22:04.628Z,2.90
2018-07-17T02:24:32.521Z,3.20
2018-07-17T02:27:00.842Z,3.17
2018-07-17T02:29:28.955Z,3.67
2018-07-17T02:31:57.081Z,3.53
2018-07-17T02:34:25.232Z,2.90
2018-07-17T02:36:53.349Z,3.27
2018-07-17T02:39:21.488Z,3.50
2018-07-17T02:41:49.621Z,3.70
2018-07-17T02:44:17.567Z,3.43
2018-07-17T02:46:45.688Z,3.70
2018-07-17T02:49:13.809Z,3.43
2018-07-17T02:51:41.932Z,2.97
2018-07-17T02:54:10.072Z,3.33
2018-07-17T02:56:37.960Z,3.30
2018-07-17T02:59:06.108Z,3.27
2018-07-17T03:01:34.057Z,3.20
2018-07-17T03:04:02.201Z,3.37
2018-07-17T03:06:30.364Z,3.30
2018-07-17T03:08:58.502Z,3.30
2018-07-17T03:11:26.399Z,3.43
2018-07-17T03:13:54.526Z,3.60
2018-07-17T03:16:22.642Z,3.10
2018-07-17T03:18:50.777Z,3.37
2018-07-17T03:21:18.907Z,4.00
2018-07-17T03:23:47.050Z,3.47
2018-07-17T03:26:15.189Z,3.33
2018-07-17T03:28:43.298Z,3.57
2018-07-17T03:31:11.429Z,3.20
2018-07-17T03:33:39.541Z,3.73
2018-07-17T03:36:07.684Z,3.57
2018-07-17T03:38:36.040Z,3.60
2018-07-17T03:41:04.178Z,3.23
2018-07-17T03:43:32.298Z,3.20
2018-07-17T03:46:00.203Z,3.20
2018-07-17T03:48:28.330Z,3.17
2018-07-17T03:50:56.496Z,3.60
2018-07-17T03:53:24.620Z,3.27
2018-07-17T03:55:52.759Z,3.30
2018-07-17T03:58:20.876Z,4.13
2018-07-17T04:00:49.025Z,3.50
2018-07-17T04:03:17.164Z,3.47
2018-07-17T04:05:45.317Z,5.00
2018-07-17T04:08:13.434Z,5.07
2018-07-17T04:10:41.580Z,5.73
2018-07-17T04:13:09.713Z,6.33
2018-07-17T04:15:37.860Z,7.00
2018-07-17T04:18:06.019Z,6.63
2018-07-17T04:20:34.129Z,7.27
2018-07-17T04:23:02.238Z,7.90
2018-07-17T04:25:30.373Z,8.23
2018-07-17T04:27:58.495Z,7.77
2018-07-17T04:30:26.401Z,7.80
2018-07-17T04:32:54.523Z,7.63
2018-07-17T04:35:22.661Z,6.90
2018-07-17T04:37:50.877Z,5.80
2018-07-17T04:40:19.011Z,5.20
2018-07-17T04:42:47.126Z,4.77
2018-07-17T04:45:15.252Z,4.83
2018-07-17T04:47:43.381Z,4.90
2018-07-17T04:50:11.348Z,4.90
2018-07-17T04:52:39.300Z,4.80
2018-07-17T04:55:07.537Z,5.20
2018-07-17T04:57:35.645Z,5.43
2018-07-17T05:00:03.831Z,5.60
2018-07-17T05:02:31.962Z,5.30
2018-07-17T05:05:00.089Z,5.17
2018-07-17T05:07:28.165Z,4.90
2018-07-17T05:09:56.104Z,5.43
2018-07-17T05:12:24.236Z,6.07
2018-07-17T05:14:52.361Z,6.10
2018-07-17T05:17:20.485Z,6.17
2018-07-17T05:19:48.608Z,4.50
2018-07-17T05:22:16.735Z,4.30
2018-07-17T05:24:45.271Z,4.00
2018-07-17T05:27:13.159Z,3.83
2018-07-17T05:29:41.302Z,4.10
2018-07-17T05:32:09.217Z,3.67
2018-07-17T05:34:37.352Z,3.47
2018-07-17T05:37:05.233Z,3.40
2018-07-17T05:39:33.336Z,3.87
2018-07-17T05:42:01.476Z,3.60
2018-07-17T05:44:29.600Z,3.70
2018-07-17T05:46:57.739Z,3.60
2018-07-17T05:49:25.966Z,3.60
2018-07-17T05:51:54.148Z,3.83
2018-07-17T05:54:22.195Z,4.00
2018-07-17T05:56:50.355Z,3.27
2018-07-17T05:59:18.488Z,3.50
2018-07-17T06:01:46.618Z,4.07
2018-07-17T06:04:14.769Z,3.47
2018-07-17T06:06:42.892Z,3.63
2018-07-17T06:09:11.391Z,3.00
2018-07-17T06:11:39.631Z,3.87
2018-07-17T06:14:07.759Z,3.47
2018-07-17T06:16:35.879Z,3.73
2018-07-17T06:19:04.068Z,3.50
2018-07-17T06:21:32.125Z,3.70
2018-07-17T06:24:00.245Z,4.10
2018-07-17T06:26:28.400Z,3.53
2018-07-17T06:28:56.839Z,3.40
2018-07-17T06:31:24.984Z,3.70
2018-07-17T06:33:53.101Z,3.43
2018-07-17T06:36:21.060Z,3.97
2018-07-17T06:38:49.028Z,4.10
2018-07-17T06:41:17.159Z,3.97
2018-07-17T06:43:45.256Z,3.97
2018-07-17T06:46:13.440Z,4.53
2018-07-17T06:48:41.573Z,4.20
2018-07-17T06:51:09.713Z,4.83
2018-07-17T06:53:37.648Z,4.63
2018-07-17T06:56:05.791Z,4.23
2018-07-17T06:58:33.963Z,5.40
2018-07-17T07:01:02.117Z,4.80
2018-07-17T07:03:30.240Z,4.57
2018-07-17T07:05:58.384Z,5.23
2018-07-17T07:08:26.496Z,5.37
2018-07-17T07:10:54.677Z,5.13
2018-07-17T07:13:22.792Z,4.40
2018-07-17T07:15:50.915Z,4.53
2018-07-17T07:18:19.048Z,5.00
2018-07-17T07:20:47.160Z,4.70
2018-07-17T07:23:15.307Z,4.20
2018-07-17T07:25:43.405Z,4.03
2018-07-17T07:28:11.546Z,5.03
2018-07-17T07:30:39.676Z,5.17
2018-07-17T07:33:07.818Z,4.57
2018-07-17T07:35:35.953Z,4.37
2018-07-17T07:38:04.080Z,4.37
2018-07-17T07:40:32.201Z,4.90
2018-07-17T07:43:00.337Z,3.97
2018-07-17T07:45:28.275Z,4.30
2018-07-17T07:47:56.660Z,4.83
2018-07-17T07:50:25.228Z,6.70
2018-07-17T07:52:53.662Z,15.23
2018-07-17T07:55:21.754Z,5.50
2018-07-17T07:57:50.377Z,4.60
2018-07-17T08:00:18.528Z,4.03
2018-07-17T08:02:46.659Z,4.80
2018-07-17T08:05:14.791Z,4.20
2018-07-17T08:07:42.913Z,4.07
2018-07-17T08:10:11.036Z,4.37
2018-07-17T08:12:39.184Z,3.90
2018-07-17T08:15:07.349Z,4.77
2018-07-17T08:17:35.484Z,4.33
2018-07-17T08:20:03.605Z,4.93
2018-07-17T08:22:31.733Z,4.43
2018-07-17T08:24:59.856Z,4.73
2018-07-17T08:27:27.991Z,4.83
2018-07-17T08:29:56.127Z,4.57
2018-07-17T08:32:24.338Z,4.07
2018-07-17T08:34:52.443Z,4.33
2018-07-17T08:37:20.577Z,4.53
2018-07-17T08:39:48.681Z,4.60
2018-07-17T08:42:16.972Z,5.20
2018-07-17T08:44:45.119Z,5.10
2018-07-17T08:47:13.258Z,5.27
2018-07-17T08:49:41.385Z,4.63
2018-07-17T08:52:09.512Z,4.93
2018-07-17T08:54:37.757Z,4.90
2018-07-17T08:57:05.801Z,4.43
2018-07-17T08:59:33.914Z,4.97
2018-07-17T09:02:02.026Z,5.30
2018-07-17T09:04:30.156Z,5.87
2018-07-17T09:06:58.314Z,4.90
2018-07-17T09:09:26.471Z,5.77
2018-07-17T09:11:54.629Z,4.90
2018-07-17T09:14:23.015Z,5.30
2018-07-17T09:16:51.156Z,5.23
2018-07-17T09:19:19.293Z,5.27
2018-07-17T09:21:47.430Z,5.57
2018-07-17T09:24:15.556Z,6.17
2018-07-17T09:26:43.668Z,4.97
2018-07-17T09:29:11.815Z,5.20
2018-07-17T09:31:39.934Z,5.53
2018-07-17T09:34:07.829Z,5.87
2018-07-17T09:36:35.968Z,5.50
2018-07-17T09:39:05.319Z,5.93
2018-07-17T09:41:33.342Z,5.80
2018-07-17T09:44:01.304Z,5.30
2018-07-17T09:46:29.239Z,5.90
2018-07-17T09:48:57.375Z,4.93
2018-07-17T09:51:25.505Z,4.73
2018-07-17T09:53:53.656Z,5.73
2018-07-17T09:56:21.784Z,5.60
2018-07-17T09:58:50.061Z,4.33
2018-07-17T10:01:23.627Z,5.20
2018-07-17T10:03:51.758Z,5.50
2018-07-17T10:06:19.888Z,5.63
2018-07-17T10:08:48.012Z,4.50
2018-07-17T10:11:16.135Z,4.60
2018-07-17T10:13:44.021Z,4.13
2018-07-17T10:16:12.149Z,4.67
2018-07-17T10:18:40.282Z,4.37
2018-07-17T10:21:08.395Z,4.20
2018-07-17T10:23:36.544Z,4.87
2018-07-17T10:26:04.683Z,4.90
2018-07-17T10:28:32.816Z,4.17
2018-07-17T10:31:00.942Z,4.23
2018-07-17T10:33:29.110Z,4.50
2018-07-17T10:35:57.210Z,4.60
2018-07-17T10:38:25.340Z,3.90
2018-07-17T10:40:53.448Z,3.93
2018-07-17T10:43:21.580Z,4.00
2018-07-17T10:45:49.715Z,4.53
2018-07-17T10:48:17.852Z,4.30
2018-07-17T10:50:45.988Z,4.20
2018-07-17T10:53:14.116Z,4.40
2018-07-17T10:55:42.267Z,3.70
2018-07-17T10:58:10.488Z,3.70
2018-07-17T11:00:38.671Z,4.20
2018-07-17T11:03:06.597Z,3.50
2018-07-17T11:05:34.722Z,4.13
2018-07-17T11:08:02.844Z,3.50
2018-07-17T11:10:30.975Z,3.70
2018-07-17T11:12:59.158Z,3.10
2018-07-17T11:15:27.280Z,3.33
2018-07-17T11:17:55.331Z,3.97
2018-07-17T11:20:23.461Z,3.80
2018-07-17T11:22:51.573Z,3.50
2018-07-17T11:25:19.711Z,3.87
2018-07-17T11:27:47.824Z,3.83
2018-07-17T11:30:15.951Z,4.20
2018-07-17T11:32:44.084Z,3.30
2018-07-17T11:35:12.227Z,3.67
2018-07-17T11:37:40.340Z,3.53
2018-07-17T11:40:08.444Z,3.57
2018-07-17T11:42:36.564Z,3.87
2018-07-17T11:45:04.695Z,4.40
2018-07-17T11:47:32.808Z,3.47
2018-07-17T11:50:00.928Z,3.47
2018-07-17T11:52:29.060Z,3.03
2018-07-17T11:54:57.188Z,2.80
2018-07-17T11:57:25.321Z,2.87
2018-07-17T11:59:53.452Z,3.10
2018-07-17T12:02:21.584Z,2.90
2018-07-17T12:04:49.711Z,2.57
2018-07-17T12:07:17.935Z,2.70
2018-07-17T12:09:46.043Z,2.57
2018-07-17T12:12:14.151Z,2.80
2018-07-17T12:14:42.285Z,2.40
2018-07-17T12:17:10.449Z,2.80
2018-07-17T12:19:38.586Z,2.93
2018-07-17T12:22:06.804Z,2.63
2018-07-17T12:24:34.960Z,2.70
2018-07-17T12:27:03.080Z,2.60
2018-07-17T12:29:31.213Z,2.70
2018-07-17T12:31:59.339Z,2.57
2018-07-17T12:34:27.463Z,2.40
2018-07-17T12:36:55.588Z,2.90
2018-07-17T12:39:23.717Z,2.83
2018-07-17T12:41:51.862Z,5.07
2018-07-17T12:44:20.168Z,5.97
2018-07-17T12:46:48.192Z,2.47
2018-07-17T12:49:16.315Z,2.70
2018-07-17T12:51:44.209Z,2.80
2018-07-17T12:54:12.340Z,2.67
2018-07-17T12:56:40.490Z,2.57
2018-07-17T12:59:08.622Z,2.80
2018-07-17T13:01:36.736Z,2.53
2018-07-17T13:04:04.849Z,2.77
2018-07-17T13:06:32.989Z,2.87
2018-07-17T13:09:01.103Z,2.60
2018-07-17T13:11:29.228Z,2.97
2018-07-17T13:13:57.369Z,2.80
2018-07-17T13:16:25.509Z,3.00
2018-07-17T13:18:53.412Z,2.87
2018-07-17T13:21:21.535Z,2.70
2018-07-17T13:23:49.460Z,2.93
2018-07-17T13:26:17.551Z,3.17
2018-07-17T13:28:45.692Z,2.90
2018-07-17T13:31:13.840Z,3.40
2018-07-17T13:33:41.961Z,3.63
2018-07-17T13:36:10.105Z,3.23
2018-07-17T13:38:38.252Z,3.07
2018-07-17T13:41:06.533Z,3.00
2018-07-17T13:43:34.659Z,3.17
2018-07-17T13:46:02.798Z,3.30
2018-07-17T13:48:30.910Z,3.00
2018-07-17T13:50:59.041Z,3.47
2018-07-17T13:53:27.172Z,3.40
2018-07-17T13:55:55.142Z,3.73
2018-07-17T13:58:23.083Z,3.50
2018-07-17T14:00:51.212Z,3.60
2018-07-17T14:03:19.340Z,3.63
2018-07-17T14:05:47.480Z,3.60
2018-07-17T14:08:15.595Z,3.77
2018-07-17T14:10:43.794Z,3.90
2018-07-17T14:13:11.920Z,3.20
2018-07-17T14:15:40.052Z,3.43
2018-07-17T14:18:08.177Z,3.80
2018-07-17T14:20:36.552Z,3.67
2018-07-17T14:23:04.779Z,3.23
2018-07-17T14:25:32.889Z,3.50
2018-07-17T14:28:01.167Z,3.33
2018-07-17T14:30:29.317Z,3.73
2018-07-17T14:32:57.492Z,3.60
2018-07-17T14:35:26.460Z,3.70
2018-07-17T14:37:54.592Z,3.53
2018-07-17T14:40:22.504Z,3.50
2018-07-17T14:42:50.630Z,3.80
2018-07-17T14:45:18.516Z,2.93
2018-07-17T14:47:46.633Z,3.20
2018-07-17T14:50:14.760Z,3.43
2018-07-17T14:52:42.904Z,3.57
2018-07-17T14:55:11.688Z,3.17
2018-07-17T14:57:41.222Z,3.43
2018-07-17T15:00:11.026Z,2.80
2018-07-17T15:02:40.039Z,3.07
2018-07-17T15:05:09.818Z,3.17
2018-07-17T15:07:38.033Z,3.27
2018-07-17T15:10:06.656Z,3.00
2018-07-17T15:12:35.652Z,3.40
2018-07-17T15:15:05.232Z,3.10
2018-07-17T15:17:34.260Z,3.30
2018-07-17T15:20:02.935Z,3.63
2018-07-17T15:22:31.553Z,3.57
2018-07-17T15:24:59.799Z,3.47
2018-07-17T15:27:28.371Z,3.30
2018-07-17T15:29:57.377Z,3.10
2018-07-17T15:32:25.913Z,3.20
2018-07-17T15:34:54.774Z,3.10
2018-07-17T15:37:23.804Z,3.30
2018-07-17T15:39:52.409Z,3.33
2018-07-17T15:42:20.552Z,3.10
2018-07-17T15:44:48.676Z,3.10
2018-07-17T15:47:16.574Z,2.93
2018-07-17T15:49:45.205Z,2.90
2018-07-17T15:52:13.981Z,3.20
2018-07-17T15:54:42.123Z,3.20
2018-07-17T15:57:10.296Z,2.90
2018-07-17T15:59:38.411Z,3.13
2018-07-17T16:02:06.855Z,3.30
2018-07-17T16:04:34.970Z,3.17
2018-07-17T16:07:03.785Z,2.90
2018-07-17T16:09:32.409Z,3.27
2018-07-17T16:12:00.905Z,3.17
2018-07-17T16:14:29.197Z,3.23
2018-07-17T16:16:57.164Z,3.30
2018-07-17T16:19:25.290Z,3.17
2018-07-17T16:21:53.409Z,2.90
2018-07-17T16:24:22.360Z,3.70
2018-07-17T16:26:50.484Z,3.20
2018-07-17T16:29:18.552Z,3.57
2018-07-17T16:31:46.508Z,3.73
2018-07-17T16:34:14.641Z,3.67
2018-07-17T16:36:42.843Z,4.87
2018-07-17T16:39:10.966Z,4.30
2018-07-17T16:41:39.888Z,3.40
2018-07-17T16:44:08.024Z,3.20
2018-07-17T16:46:36.181Z,4.00
2018-07-17T16:49:04.080Z,4.33
2018-07-17T16:51:32.204Z,4.50
2018-07-17T16:54:00.158Z,3.50
2018-07-17T16:56:28.331Z,2.87
2018-07-17T16:58:56.538Z,2.90
2018-07-17T17:01:24.959Z,3.30
2018-07-17T17:03:53.733Z,2.90
2018-07-17T17:06:22.690Z,3.60
2018-07-17T17:08:51.001Z,3.53
2018-07-17T17:11:19.287Z,3.30
2018-07-17T17:13:47.751Z,3.10
2018-07-17T17:16:15.883Z,2.90
2018-07-17T17:18:43.871Z,3.20
2018-07-17T17:21:12.518Z,3.17
2018-07-17T17:23:40.838Z,3.33
2018-07-17T17:26:08.971Z,3.07
2018-07-17T17:28:37.100Z,3.67
2018-07-17T17:31:05.218Z,3.50
2018-07-17T17:33:33.359Z,3.50
2018-07-17T17:36:01.496Z,3.37
2018-07-17T17:38:29.641Z,3.27
2018-07-17T17:40:57.559Z,3.57
2018-07-17T17:43:25.759Z,3.73
2018-07-17T17:45:53.906Z,4.20
2018-07-17T17:48:22.050Z,3.70
2018-07-17T17:50:50.162Z,4.00
2018-07-17T17:53:18.306Z,4.67
2018-07-17T17:55:46.439Z,4.50
2018-07-17T17:58:14.402Z,4.47
2018-07-17T18:00:42.580Z,4.20
2018-07-17T18:03:10.767Z,4.30
2018-07-17T18:05:38.644Z,4.33
2018-07-17T18:08:06.776Z,4.30
2018-07-17T18:10:34.928Z,4.40
2018-07-17T18:13:03.089Z,4.33
2018-07-17T18:15:31.202Z,4.47
2018-07-17T18:17:59.848Z,4.50
2018-07-17T18:20:28.326Z,5.30
2018-07-17T18:22:56.461Z,5.23
2018-07-17T18:25:24.403Z,5.13
2018-07-17T18:27:52.537Z,4.63
2018-07-17T18:30:20.668Z,5.53
2018-07-17T18:32:48.625Z,5.57
2018-07-17T18:35:16.765Z,5.63
2018-07-17T18:37:44.904Z,5.70
2018-07-17T18:40:13.034Z,5.33
2018-07-17T18:42:41.172Z,5.10
2018-07-17T18:45:09.302Z,5.00
2018-07-17T18:47:37.223Z,5.40
2018-07-17T18:50:12.861Z,5.23
2018-07-17T18:52:33.419Z,5.43
2018-07-17T18:55:01.590Z,5.63
2018-07-17T18:57:29.498Z,5.73
2018-07-17T18:59:57.633Z,5.80
2018-07-17T19:02:25.533Z,6.00
2018-07-17T19:04:53.655Z,5.50
2018-07-17T19:07:21.556Z,5.40
2018-07-17T19:09:49.676Z,5.53
2018-07-17T19:12:17.889Z,5.50
2018-07-17T19:14:45.952Z,6.10
2018-07-17T19:17:13.902Z,5.80
2018-07-17T19:19:42.064Z,5.77
2018-07-17T19:22:10.220Z,5.33
2018-07-17T19:24:38.381Z,5.53
2018-07-17T19:27:06.765Z,5.10
2018-07-17T19:29:34.898Z,5.57
2018-07-17T19:32:02.907Z,5.77
2018-07-17T19:34:31.618Z,5.77
2018-07-17T19:36:59.814Z,5.90
2018-07-17T19:39:28.030Z,5.77
2018-07-17T19:41:56.236Z,5.60
2018-07-17T19:44:24.370Z,5.63
2018-07-17T19:46:52.504Z,6.00
2018-07-17T19:49:20.476Z,5.53
2018-07-17T19:51:48.468Z,6.00
2018-07-17T19:54:16.601Z,5.30
2018-07-17T19:56:44.735Z,5.40
2018-07-17T19:59:12.919Z,6.00
2018-07-17T20:01:41.040Z,5.33
2018-07-17T20:04:09.008Z,5.83
2018-07-17T20:06:36.900Z,6.13
2018-07-17T20:09:06.700Z,5.90
2018-07-17T20:11:34.640Z,5.50
2018-07-17T20:14:02.804Z,5.40
2018-07-17T20:16:30.937Z,5.50
2018-07-17T20:18:59.115Z,5.20
2018-07-17T20:21:27.213Z,5.50
2018-07-17T20:23:55.387Z,6.00
2018-07-17T20:26:23.537Z,5.57
2018-07-17T20:28:51.876Z,5.67
2018-07-17T20:31:19.785Z,6.50
2018-07-17T20:33:48.237Z,5.63
2018-07-17T20:36:16.328Z,5.70
2018-07-17T20:38:44.556Z,5.83
2018-07-17T20:41:12.688Z,5.77
2018-07-17T20:43:40.820Z,6.10
2018-07-17T20:46:08.748Z,6.00
2018-07-17T20:48:36.892Z,6.00
2018-07-17T20:51:05.098Z,6.00
2018-07-17T20:53:33.224Z,6.00
2018-07-17T20:56:01.385Z,6.30
2018-07-17T20:58:29.499Z,5.93
2018-07-17T21:00:57.648Z,6.23
2018-07-17T21:03:25.769Z,6.20
2018-07-17T21:05:53.906Z,5.80
2018-07-17T21:08:22.037Z,5.80
2018-07-17T21:10:49.934Z,6.00
2018-07-17T21:13:18.197Z,6.10
2018-07-17T21:15:46.276Z,6.13
2018-07-17T21:18:14.400Z,7.47
2018-07-17T21:20:42.538Z,6.30
2018-07-17T21:23:10.665Z,6.20
2018-07-17T21:25:38.627Z,7.10
2018-07-17T21:28:06.811Z,6.93
2018-07-17T21:30:34.999Z,6.50
2018-07-17T21:33:03.145Z,6.27
2018-07-17T21:35:31.268Z,6.90
2018-07-17T21:37:59.384Z,7.33
2018-07-17T21:40:27.528Z,6.90
2018-07-17T21:42:55.660Z,6.83
2018-07-17T21:45:23.797Z,6.07
2018-07-17T21:47:51.931Z,6.70
2018-07-17T21:50:20.056Z,6.00
2018-07-17T21:52:48.184Z,6.53
2018-07-17T21:55:16.392Z,6.93
2018-07-17T21:57:44.552Z,6.97
2018-07-17T22:00:12.690Z,6.90
2018-07-17T22:02:40.805Z,6.53
2018-07-17T22:05:08.965Z,6.93
2018-07-17T22:07:37.089Z,7.30
2018-07-17T22:10:05.233Z,7.47
2018-07-17T22:12:33.368Z,6.50
2018-07-17T22:15:01.545Z,6.40
2018-07-17T22:17:29.675Z,7.30
2018-07-17T22:19:57.577Z,6.03
2018-07-17T22:22:25.703Z,6.40
2018-07-17T22:24:53.803Z,6.50
2018-07-17T22:27:21.969Z,6.43
2018-07-17T22:29:49.913Z,7.10
2018-07-17T22:32:18.064Z,6.87
2018-07-17T22:34:46.195Z,6.97
2018-07-17T22:37:14.437Z,6.90
2018-07-17T22:39:42.452Z,7.17
2018-07-17T22:42:10.583Z,6.80
2018-07-17T22:44:38.469Z,7.30
2018-07-17T22:47:06.603Z,6.90
2018-07-17T22:49:34.736Z,6.97
2018-07-17T22:52:02.910Z,6.97
2018-07-17T22:54:31.025Z,6.23
2018-07-17T22:56:59.259Z,7.07
2018-07-17T22:59:27.372Z,6.40
2018-07-17T23:01:55.509Z,6.87
2018-07-17T23:04:23.623Z,6.90
2018-07-17T23:06:51.765Z,6.90
2018-07-17T23:09:19.912Z,7.17
2018-07-17T23:11:48.073Z,7.00
2018-07-17T23:14:16.211Z,6.40
2018-07-17T23:16:44.348Z,7.00
2018-07-17T23:19:12.458Z,6.20
2018-07-17T23:21:40.587Z,7.33
2018-07-17T23:24:08.695Z,6.30
2018-07-17T23:26:36.836Z,7.10
2018-07-17T23:29:04.973Z,7.40
2018-07-17T23:31:32.872Z,7.23
2018-07-17T23:34:01.000Z,7.10
2018-07-17T23:36:29.149Z,7.53
2018-07-17T23:38:57.318Z,7.90
2018-07-17T23:41:25.488Z,7.60
2018-07-17T23:43:53.605Z,8.13
2018-07-17T23:46:21.785Z,7.13
2018-07-17T23:48:49.883Z,6.57
2018-07-17T23:51:18.030Z,7.43
2018-07-17T23:53:46.145Z,6.40
2018-07-17T23:56:14.300Z,7.10
2018-07-17T23:58:42.442Z,6.90
